Time;durP1;ratioP1;P1;durP2;ratioP2;P2;SDS_P1;SDS_P2;PMS_P1;PMS_P2;Temp;Humidity;BMP_temperature;BMP_pressure;BME280_temperature;BME280_humidity;BME280_pressure;Samples;Min_cycle;Max_cycle;Signal;HPM_P1;HPM_P2
2023/10/11 00:01:17;;;;;;;6.17;5.30;;;;;;;14.77;100.00;100564.19;5037159;28;20210;-78
2023/10/11 00:03:52;;;;;;;5.63;4.90;;;;;;;14.77;100.00;100566.78;5053013;28;20225;-83
2023/10/11 00:06:17;;;;;;;5.30;4.60;;;;;;;14.77;100.00;100568.50;5025171;28;20196;-82
2023/10/11 00:08:43;;;;;;;5.70;5.10;;;;;;;14.78;100.00;100570.22;5012665;28;20639;-82
2023/10/11 00:11:09;;;;;;;5.33;4.83;;;;;;;14.78;100.00;100570.22;5020146;28;20245;-82
2023/10/11 00:13:36;;;;;;;6.70;4.50;;;;;;;14.78;100.00;100571.09;5017095;28;20195;-82
2023/10/11 00:16:10;;;;;;;8.27;5.20;;;;;;;14.79;100.00;100561.53;5013793;28;21236;-84
2023/10/11 00:18:38;;;;;;;5.83;4.80;;;;;;;14.80;100.00;100570.22;5018903;28;20187;-80
2023/10/11 00:23:55;;;;;;;6.90;5.67;;;;;;;14.77;100.00;100561.56;5003746;28;20310;-82
2023/10/11 00:26:22;;;;;;;5.27;4.57;;;;;;;14.77;100.00;100560.69;5007235;28;21053;-80
2023/10/11 00:28:48;;;;;;;5.57;4.87;;;;;;;14.76;100.00;100564.19;5007948;28;20318;-84
2023/10/11 00:31:17;;;;;;;7.23;5.37;;;;;;;14.75;100.00;100557.25;5009249;28;20382;-80
2023/10/11 00:33:42;;;;;;;5.60;4.60;;;;;;;14.75;100.00;100552.06;5018332;28;20190;-81
2023/10/11 00:36:08;;;;;;;6.07;4.70;;;;;;;14.73;100.00;100559.91;5021071;28;20256;-81
2023/10/11 00:38:43;;;;;;;7.80;5.37;;;;;;;14.73;100.00;100564.28;5017200;28;20345;-81
2023/10/11 00:41:20;;;;;;;6.10;4.83;;;;;;;14.72;100.00;100567.78;5014328;28;20308;-82
2023/10/11 00:43:49;;;;;;;5.37;4.83;;;;;;;14.71;100.00;100555.66;5014286;28;20194;-81
2023/10/11 00:46:19;;;;;;;5.57;4.70;;;;;;;14.70;100.00;100557.38;5017681;28;20349;-79
2023/10/11 00:49:08;;;;;;;7.07;5.20;;;;;;;14.66;100.00;100552.25;5018411;28;20219;-84
2023/10/11 00:51:36;;;;;;;5.17;4.53;;;;;;;14.62;100.00;100551.44;5016694;28;20211;-81
2023/10/11 00:54:04;;;;;;;5.83;5.07;;;;;;;14.58;100.00;100550.66;5015845;28;20215;-83
2023/10/11 00:56:33;;;;;;;5.97;5.30;;;;;;;14.52;100.00;100548.19;5012047;28;20215;-84
2023/10/11 00:59:08;;;;;;;5.17;4.67;;;;;;;14.47;100.00;100548.28;5017315;28;20228;-83
2023/10/11 01:01:35;;;;;;;6.60;4.87;;;;;;;14.43;100.00;100545.78;5013228;28;20301;-82
2023/10/11 01:04:01;;;;;;;7.80;5.37;;;;;;;14.40;100.00;100545.84;5009029;28;20336;-84
2023/10/11 01:06:28;;;;;;;7.20;4.60;;;;;;;14.37;100.00;100546.75;5020966;28;20221;-82
2023/10/11 01:08:54;;;;;;;4.70;4.30;;;;;;;14.34;100.00;100544.22;5016699;28;20279;-81
2023/10/11 01:11:19;;;;;;;6.00;4.80;;;;;;;14.31;100.00;100539.91;5019553;28;20307;-83
2023/10/11 01:13:50;;;;;;;6.13;4.83;;;;;;;14.30;100.00;100546.00;5015176;28;20886;-82
2023/10/11 01:16:26;;;;;;;5.87;4.63;;;;;;;14.31;100.00;100544.28;5005634;28;20231;-82
2023/10/11 01:18:52;;;;;;;5.53;4.60;;;;;;;14.28;100.00;100542.59;5018108;28;20190;-81
2023/10/11 01:21:19;;;;;;;7.30;4.47;;;;;;;14.27;100.00;100546.09;5036763;28;20223;-80
2023/10/11 01:23:44;;;;;;;5.73;4.50;;;;;;;14.23;100.00;100535.75;5010743;28;20187;-81
2023/10/11 01:26:10;;;;;;;6.87;4.97;;;;;;;14.21;100.00;100537.56;5013636;28;20193;-77
2023/10/11 01:28:40;;;;;;;7.53;4.83;;;;;;;14.19;100.00;100534.97;5012318;28;20214;-82
2023/10/11 01:31:10;;;;;;;5.90;4.40;;;;;;;14.15;100.00;100541.97;5015229;28;20216;-79
2023/10/11 01:33:37;;;;;;;5.53;4.70;;;;;;;14.12;100.00;100536.00;5019250;28;20278;-81
2023/10/11 01:36:21;;;;;;;6.20;4.30;;;;;;;14.08;100.00;100534.31;5008839;28;20216;-82
2023/10/11 01:38:47;;;;;;;4.57;4.03;;;;;;;14.03;100.00;100527.47;5015846;28;20181;-80
2023/10/11 01:41:19;;;;;;;5.50;4.37;;;;;;;14.02;100.00;100525.75;5024152;28;20217;-81
2023/10/11 01:43:49;;;;;;;5.40;4.50;;;;;;;14.00;100.00;100527.50;5019969;28;20768;-80
2023/10/11 01:46:16;;;;;;;7.03;4.83;;;;;;;13.99;100.00;100525.78;5018021;28;20229;-82
2023/10/11 01:48:45;;;;;;;5.87;4.90;;;;;;;13.96;100.00;100523.28;5017284;28;20275;-80
2023/10/11 01:51:16;;;;;;;5.80;4.60;;;;;;;13.94;100.00;100527.66;5025066;28;20266;-79
2023/10/11 01:53:43;;;;;;;7.57;4.80;;;;;;;13.91;100.00;100525.09;5022141;28;20188;-79
2023/10/11 01:56:08;;;;;;;6.60;4.40;;;;;;;13.90;100.00;100525.97;5029962;28;20253;-84
2023/10/11 01:58:37;;;;;;;5.07;4.40;;;;;;;13.90;100.00;100530.34;5024089;28;20186;-84
2023/10/11 02:01:05;;;;;;;5.47;4.23;;;;;;;13.89;100.00;100519.06;5020260;28;20398;-79
2023/10/11 02:03:31;;;;;;;6.77;4.60;;;;;;;13.90;100.00;100517.34;5029594;28;20593;-83
2023/10/11 02:05:56;;;;;;;5.73;4.30;;;;;;;13.91;100.00;100522.50;5027454;28;20202;-77
2023/10/11 02:08:25;;;;;;;7.73;4.80;;;;;;;13.93;100.00;100517.25;5032856;28;20181;-79
2023/10/11 02:10:50;;;;;;;7.07;4.70;;;;;;;13.95;100.00;100525.88;5025234;28;20632;-82
2023/10/11 02:13:15;;;;;;;8.13;4.97;;;;;;;13.95;100.00;100521.56;5022911;28;20268;-81
2023/10/11 02:15:42;;;;;;;7.00;5.00;;;;;;;13.98;100.00;100528.44;5024035;28;20207;-85
2023/10/11 02:18:08;;;;;;;6.47;4.60;;;;;;;14.00;100.00;100526.66;5028796;28;20197;-82
2023/10/11 02:20:45;;;;;;;9.20;6.00;;;;;;;14.02;100.00;100523.13;5020172;28;20211;-84
2023/10/11 02:23:11;;;;;;;8.27;5.67;;;;;;;14.03;100.00;100526.63;5018261;28;20199;-84
2023/10/11 02:25:37;;;;;;;6.90;5.10;;;;;;;14.06;100.00;100520.47;5013720;28;20183;-78
2023/10/11 02:28:08;;;;;;;6.43;5.50;;;;;;;14.08;100.00;100526.53;5020880;28;20191;-83
2023/10/11 02:30:38;;;;;;;7.57;5.67;;;;;;;14.09;100.00;100517.81;5020601;28;20196;-85
2023/10/11 02:33:07;;;;;;;7.80;5.47;;;;;;;14.10;100.00;100516.94;5013033;28;20202;-83
2023/10/11 02:35:49;;;;;;;7.23;5.70;;;;;;;14.09;100.00;100521.28;5019308;28;20214;-83
2023/10/11 02:38:21;;;;;;;10.77;6.03;;;;;;;14.09;100.00;100513.47;5015891;28;20198;-83
2023/10/11 02:40:54;;;;;;;7.30;5.47;;;;;;;14.08;100.00;100518.72;5021385;28;20690;-78
2023/10/11 02:43:20;;;;;;;6.97;5.33;;;;;;;14.06;100.00;100515.28;5013350;28;20244;-82
2023/10/11 02:45:45;;;;;;;7.40;5.30;;;;;;;14.04;100.00;100515.31;5020195;28;20177;-79
2023/10/11 02:48:11;;;;;;;6.33;5.00;;;;;;;14.02;100.00;100519.69;5014760;28;20640;-83
2023/10/11 02:50:36;;;;;;;5.80;4.97;;;;;;;13.99;100.00;100515.38;5021046;28;20327;-82
2023/10/11 02:53:12;;;;;;;6.90;5.07;;;;;;;13.97;100.00;100513.72;5014722;28;20198;-79
2023/10/11 02:55:38;;;;;;;6.73;5.30;;;;;;;13.95;100.00;100511.16;5020584;28;20208;-81
2023/10/11 02:58:07;;;;;;;6.53;5.50;;;;;;;13.93;100.00;100515.53;5020214;28;20248;-84
2023/10/11 03:00:36;;;;;;;7.53;5.73;;;;;;;13.92;100.00;100513.81;5012760;28;20753;-78
2023/10/11 03:03:07;;;;;;;7.60;5.60;;;;;;;13.89;100.00;100511.25;5014598;28;20194;-82
2023/10/11 03:05:35;;;;;;;7.57;5.33;;;;;;;13.86;100.00;100512.19;5018032;28;20297;-84
2023/10/11 03:08:14;;;;;;;8.10;5.60;;;;;;;13.84;100.00;100511.34;5014779;28;20263;-80
2023/10/11 03:10:53;;;;;;;6.07;5.17;;;;;;;13.83;100.00;100514.84;5019648;28;20182;-78
2023/10/11 03:13:29;;;;;;;8.03;5.30;;;;;;;13.81;100.00;100516.59;5019094;28;20217;-83
2023/10/11 03:15:55;;;;;;;5.43;4.83;;;;;;;13.78;100.00;100521.84;5012429;28;20209;-81
2023/10/11 03:18:25;;;;;;;7.43;5.60;;;;;;;13.76;100.00;100509.78;5010792;28;20221;-82
2023/10/11 03:21:08;;;;;;;6.40;5.07;;;;;;;13.71;100.00;100508.09;5018694;28;20275;-82
2023/10/11 03:23:43;;;;;;;6.47;5.17;;;;;;;13.68;100.00;100509.91;5022635;28;20216;-80
2023/10/11 03:28:57;;;;;;;6.37;5.43;;;;;;;13.63;100.00;100512.59;5014109;28;20229;-84
2023/10/11 03:31:31;;;;;;;5.97;4.97;;;;;;;13.61;100.00;100508.34;5024024;28;20204;-82
2023/10/11 03:33:59;;;;;;;6.93;5.07;;;;;;;13.59;100.00;100499.69;5022567;28;20192;-82
2023/10/11 03:36:43;;;;;;;6.50;4.93;;;;;;;13.56;100.00;100505.78;5021117;28;20564;-82
2023/10/11 03:39:09;;;;;;;8.03;4.90;;;;;;;13.54;100.00;100499.75;5021212;28;20194;-82
2023/10/11 03:41:45;;;;;;;5.70;4.30;;;;;;;13.53;100.00;100498.06;5014538;28;20241;-83
2023/10/11 03:44:11;;;;;;;5.53;4.83;;;;;;;13.50;100.00;100498.13;5014017;28;20182;-82
2023/10/11 03:46:38;;;;;;;5.57;4.67;;;;;;;13.46;100.00;100494.69;5021449;28;20297;-81
2023/10/11 03:51:48;;;;;;;6.37;4.90;;;;;;;13.40;100.00;100493.06;5020504;28;20201;-82
2023/10/11 03:54:21;;;;;;;5.73;5.13;;;;;;;13.38;100.00;100499.16;5018024;28;20562;-81
2023/10/11 03:56:53;;;;;;;5.47;4.50;;;;;;;13.34;100.00;100493.16;5014996;28;20211;-80
2023/10/11 03:59:20;;;;;;;5.30;4.80;;;;;;;13.32;100.00;100497.50;5023327;28;20194;-78
2023/10/11 04:01:46;;;;;;;6.33;5.10;;;;;;;13.32;100.00;100483.66;5017113;28;20209;-81
2023/10/11 04:04:11;;;;;;;6.97;4.83;;;;;;;13.31;100.00;100494.94;5016804;28;20199;-80
2023/10/11 04:06:37;;;;;;;7.73;5.40;;;;;;;13.29;100.00;100484.56;5016588;28;20195;-79
2023/10/11 04:09:22;;;;;;;7.77;5.90;;;;;;;13.29;100.00;100491.50;5014586;28;20666;-85
2023/10/11 04:11:55;;;;;;;7.77;5.97;;;;;;;13.27;100.00;100487.19;5014260;28;20211;-76
2023/10/11 04:14:24;;;;;;;9.23;5.50;;;;;;;13.29;100.00;100491.50;5041896;28;20201;-78
2023/10/11 04:16:53;;;;;;;9.67;6.07;;;;;;;13.30;100.00;100493.22;5030927;28;20223;-83
2023/10/11 04:19:21;;;;;;;6.47;5.30;;;;;;;13.31;100.00;100494.94;5021036;28;20197;-80
2023/10/11 04:24:19;;;;;;;8.27;5.30;;;;;;;13.32;100.00;100507.03;5016596;28;20197;-82
2023/10/11 04:26:53;;;;;;;5.67;4.43;;;;;;;13.32;100.00;100507.03;5013676;28;20218;-81
2023/10/11 04:29:19;;;;;;;10.43;5.53;;;;;;;13.31;100.00;100500.16;5014261;28;20710;-82
2023/10/11 04:34:32;;;;;;;12.77;6.57;;;;;;;13.30;100.00;100496.69;5017870;28;20706;-79
2023/10/11 04:36:59;;;;;;;10.40;6.83;;;;;;;13.30;100.00;100504.47;5015871;28;20184;-81
2023/10/11 04:39:28;;;;;;;8.47;6.37;;;;;;;13.31;100.00;100502.75;5005685;28;20196;-82
2023/10/11 04:41:57;;;;;;;10.83;6.70;;;;;;;13.32;100.00;100507.03;5018725;28;20211;-80
2023/10/11 04:44:42;;;;;;;10.20;6.97;;;;;;;13.30;100.00;100499.28;5017114;28;20997;-83
2023/10/11 04:47:10;;;;;;;8.60;6.40;;;;;;;13.32;100.00;100507.91;5010870;28;20264;-81
2023/10/11 04:49:36;;;;;;;11.30;6.60;;;;;;;13.32;100.00;100507.03;5013081;28;20298;-80
2023/10/11 04:52:10;;;;;;;8.40;5.77;;;;;;;13.33;100.00;100500.97;5016694;28;20684;-80
2023/10/11 04:54:36;;;;;;;6.13;5.23;;;;;;;13.33;100.00;100498.34;5020600;28;20199;-83
2023/10/11 04:57:07;;;;;;;8.93;5.40;;;;;;;13.33;100.00;100496.63;5021159;28;20191;-83
2023/10/11 05:02:02;;;;;;;11.33;5.83;;;;;;;13.37;100.00;100500.91;5023361;28;20210;-82
2023/10/11 05:04:44;;;;;;;9.37;6.83;;;;;;;13.36;100.00;100499.19;5014323;28;20192;-86
2023/10/11 05:07:09;;;;;;;7.10;5.33;;;;;;;13.38;100.00;100506.94;5016323;28;20671;-81
2023/10/11 05:09:38;;;;;;;7.13;5.70;;;;;;;13.36;100.00;100504.38;5016580;28;20174;-79
2023/10/11 05:12:10;;;;;;;12.00;6.37;;;;;;;13.38;100.00;100509.53;5019409;28;20242;-82
2023/10/11 05:19:45;;;;;;;10.07;5.87;;;;;;;13.35;100.00;100502.66;5016008;28;20181;-81
2023/10/11 05:27:47;;;;;;;8.60;5.57;;;;;;;13.33;100.00;100500.97;5026199;28;20187;-80
2023/10/11 05:30:26;;;;;;;7.57;5.60;;;;;;;13.30;100.00;100503.63;5020433;28;20668;-82
2023/10/11 05:33:15;;;;;;;8.00;5.93;;;;;;;13.28;100.00;100493.25;5017108;28;20214;-79
2023/10/11 05:52:08;;;;;;;8.00;5.50;;;;;;;13.19;100.00;100494.25;5012382;28;20294;-79
2023/10/11 05:54:35;;;;;;;6.27;5.10;;;;;;;13.21;100.00;100494.25;5016397;28;20270;-81
2023/10/11 05:57:03;;;;;;;7.40;5.00;;;;;;;13.22;100.00;100493.38;5021284;28;20214;-82
2023/10/11 05:59:32;;;;;;;8.17;5.70;;;;;;;13.25;100.00;100488.09;5023858;28;20189;-78
2023/10/11 06:01:57;;;;;;;7.57;5.43;;;;;;;13.27;100.00;100488.94;5019341;28;20272;-80
2023/10/11 06:04:23;;;;;;;6.37;5.57;;;;;;;13.27;100.00;100483.72;5014946;28;20228;-82
2023/10/11 06:06:57;;;;;;;7.27;5.00;;;;;;;13.29;100.00;100486.31;5014918;28;20182;-80
2023/10/11 06:09:26;;;;;;;7.90;5.23;;;;;;;13.31;100.00;100495.78;5018468;28;20200;-80
2023/10/11 06:11:52;;;;;;;7.77;5.17;;;;;;;13.35;100.00;100494.00;5046089;28;20965;-80
2023/10/11 06:14:18;;;;;;;7.83;5.03;;;;;;;13.37;100.00;100500.03;5026331;28;20193;-84
2023/10/11 06:16:49;;;;;;;5.70;4.77;;;;;;;13.39;100.00;100496.50;5016125;28;20224;-83
2023/10/11 06:19:16;;;;;;;7.33;5.13;;;;;;;13.43;100.00;100505.16;5021012;28;20182;-79
2023/10/11 06:21:56;;;;;;;7.73;5.43;;;;;;;13.46;100.00;100510.28;5032169;28;20214;-77
2023/10/11 06:24:35;;;;;;;7.60;5.37;;;;;;;13.48;100.00;100513.72;5020510;28;20214;-81
2023/10/11 06:29:45;;;;;;;7.60;6.00;;;;;;;13.55;100.00;100512.75;5012302;28;20178;-80
2023/10/11 06:32:11;;;;;;;7.60;5.87;;;;;;;13.61;100.00;100513.53;5016826;28;20582;-82
2023/10/11 06:34:39;;;;;;;8.70;6.30;;;;;;;13.65;100.00;100516.03;5019676;28;20220;-79
2023/10/11 06:37:07;;;;;;;7.43;5.37;;;;;;;13.69;100.00;100517.69;5011151;28;20191;-81
2023/10/11 06:42:14;;;;;;;7.43;5.50;;;;;;;13.77;100.00;100520.13;5021546;28;20212;-80
2023/10/11 06:44:51;;;;;;;8.57;6.33;;;;;;;13.83;100.00;100516.59;5020732;28;20282;-81
2023/10/11 06:47:19;;;;;;;10.50;5.57;;;;;;;13.87;100.00;100519.09;5017793;28;20277;-79
2023/10/11 06:49:48;;;;;;;8.83;5.47;;;;;;;13.94;100.00;100526.78;5011645;28;20246;-81
2023/10/11 06:52:17;;;;;;;8.07;5.40;;;;;;;13.98;100.00;100529.31;5017718;28;20202;-82
2023/10/11 06:54:46;;;;;;;6.60;5.70;;;;;;;14.03;100.00;100524.00;5014545;28;20217;-80
2023/10/11 06:57:21;;;;;;;7.90;5.70;;;;;;;14.08;100.00;100529.13;5022397;28;20275;-78
2023/10/11 06:59:58;;;;;;;7.17;5.50;;;;;;;14.12;100.00;100526.44;5016603;28;20189;-82
2023/10/11 07:02:32;;;;;;;7.53;5.83;;;;;;;14.18;100.00;100535.84;5011627;28;20201;-81
2023/10/11 07:05:05;;;;;;;7.73;5.67;;;;;;;14.25;100.00;100544.41;4985765;28;1091907;-81
2023/10/11 07:07:34;;;;;;;9.87;5.87;;;;;;;14.31;100.00;100532.09;5020257;28;20281;-84
2023/10/11 07:10:03;;;;;;;7.67;5.43;;;;;;;14.37;100.00;100536.31;5024319;28;20207;-82
2023/10/11 07:12:28;;;;;;;9.07;6.03;;;;;;;14.44;100.00;100537.09;5017746;28;20674;-80
2023/10/11 07:14:58;;;;;;;7.27;5.60;;;;;;;14.55;100.00;100536.84;5018839;28;20295;-83
2023/10/11 07:17:32;;;;;;;9.97;5.63;;;;;;;14.65;100.00;100538.38;5026547;28;20185;-80
2023/10/11 07:19:57;;;;;;;8.83;5.63;;;;;;;14.78;100.00;100532.03;5030271;28;20180;-81
2023/10/11 07:22:26;;;;;;;7.37;6.50;;;;;;;14.87;100.00;100536.19;5025749;28;20214;-79
2023/10/11 07:24:59;;;;;;;6.17;5.50;;;;;;;14.94;100.00;100539.50;5022110;28;20304;-81
2023/10/11 07:27:37;;;;;;;8.73;6.53;;;;;;;15.01;100.00;100553.22;5019389;28;20908;-82
2023/10/11 07:30:06;;;;;;;7.80;5.73;;;;;;;15.07;100.00;100545.25;5024167;28;20177;-81
2023/10/11 07:32:36;;;;;;;7.83;6.30;;;;;;;15.12;100.00;100548.63;5023726;28;20218;-80
2023/10/11 07:35:05;;;;;;;9.90;6.37;;;;;;;15.20;100.00;100557.09;5024639;28;20661;-81
2023/10/11 07:37:31;;;;;;;7.63;6.00;;;;;;;15.30;100.00;100562.13;5017682;28;20595;-82
2023/10/11 07:40:06;;;;;;;8.93;5.63;;;;;;;15.43;100.00;100563.53;5024054;28;20183;-79
2023/10/11 07:42:37;;;;;;;11.07;6.53;;;;;;;15.47;100.00;100567.78;5023013;28;20217;-81
2023/10/11 07:45:07;;;;;;;8.47;5.93;;;;;;;15.60;100.00;100568.31;5025011;28;20193;-83
2023/10/11 07:47:34;;;;;;;8.77;5.70;;;;;;;15.69;100.00;100575.03;5018663;28;20265;-84
2023/10/11 07:49:59;;;;;;;7.17;5.60;;;;;;;15.80;100.00;100580.88;5017645;28;20249;-82
2023/10/11 07:52:25;;;;;;;6.37;5.13;;;;;;;15.93;100.00;100577.97;5017433;28;20211;-82
2023/10/11 07:54:52;;;;;;;6.77;4.90;;;;;;;16.03;100.00;100578.56;5026348;28;20199;-82
2023/10/11 07:57:19;;;;;;;5.60;5.03;;;;;;;16.14;100.00;100576.53;5016072;28;20203;-83
2023/10/11 07:59:47;;;;;;;8.93;6.03;;;;;;;16.20;100.00;100584.16;5018205;28;20344;-85
2023/10/11 08:02:41;;;;;;;12.87;5.93;;;;;;;16.23;100.00;100583.25;5021282;28;20211;-82
2023/10/11 08:05:12;;;;;;;9.17;6.20;;;;;;;16.32;99.79;100574.31;5018716;28;20219;-82
2023/10/11 08:07:38;;;;;;;7.33;5.83;;;;;;;16.48;99.47;100562.50;5023423;28;20187;-84
2023/10/11 08:10:29;;;;;;;7.87;5.57;;;;;;;16.59;99.38;100570.88;5014940;28;20196;-81
2023/10/11 08:12:48;;;;;;;8.23;5.80;;;;;;;16.68;98.98;100580.22;5012209;28;20223;-84
2023/10/11 08:15:19;;;;;;;14.37;6.13;;;;;;;16.68;97.83;100574.97;5022266;28;20605;-81
2023/10/11 08:17:44;;;;;;;7.17;5.17;;;;;;;16.83;98.01;100567.59;5008538;28;20197;-80
2023/10/11 08:20:15;;;;;;;8.10;5.23;;;;;;;16.89;98.28;100570.88;5014611;28;20272;-83
2023/10/11 08:22:40;;;;;;;7.03;5.87;;;;;;;17.01;97.42;100566.19;5012415;28;20196;-82
2023/10/11 08:25:12;;;;;;;9.20;5.87;;;;;;;17.09;97.33;100563.31;5016691;28;20181;-85
2023/10/11 08:27:38;;;;;;;12.33;6.40;;;;;;;17.12;96.60;100558.84;5019712;28;20188;-84
2023/10/11 08:30:16;;;;;;;7.53;5.30;;;;;;;17.22;96.12;100556.78;5025916;28;20260;-79
2023/10/11 08:32:43;;;;;;;11.80;7.83;;;;;;;17.34;95.61;100558.16;5048305;28;20197;-83
2023/10/11 08:35:23;;;;;;;14.17;10.37;;;;;;;17.32;95.32;100560.81;5057963;28;20213;-86
2023/10/11 08:37:52;;;;;;;13.53;10.20;;;;;;;17.45;95.31;100561.28;5017537;28;20187;-83
2023/10/11 08:40:22;;;;;;;13.80;8.87;;;;;;;17.54;95.18;100562.72;5021394;28;20187;-83
2023/10/11 08:42:52;;;;;;;9.23;6.80;;;;;;;17.64;94.78;100566.72;5022507;28;20213;-84
2023/10/11 08:45:24;;;;;;;9.93;6.73;;;;;;;17.79;94.56;100560.13;5019050;28;20192;-82
2023/10/11 08:47:50;;;;;;;11.63;6.27;;;;;;;17.86;94.73;100558.16;5021147;28;20208;-82
2023/10/11 08:50:18;;;;;;;11.30;6.63;;;;;;;17.95;94.13;100556.97;5022543;28;20192;-79
2023/10/11 08:52:44;;;;;;;10.10;5.33;;;;;;;18.08;93.80;100558.28;5020074;28;20216;-81
2023/10/11 08:55:12;;;;;;;8.50;5.90;;;;;;;18.13;93.63;100560.72;5022034;28;20221;-82
2023/10/11 08:57:38;;;;;;;7.30;6.00;;;;;;;18.23;93.63;100562.09;5019834;28;20401;-80
2023/10/11 09:00:17;;;;;;;8.83;5.97;;;;;;;18.31;93.42;100555.72;5018520;28;20202;-81
2023/10/11 09:02:48;;;;;;;11.63;5.20;;;;;;;18.43;93.37;100558.75;5020403;28;20341;-83
2023/10/11 09:05:29;;;;;;;11.27;6.20;;;;;;;18.41;93.62;100552.72;5015231;28;20205;-81
2023/10/11 09:07:55;;;;;;;10.47;5.70;;;;;;;18.55;93.48;100561.81;5021116;28;20182;-85
2023/10/11 09:10:28;;;;;;;8.60;5.63;;;;;;;18.66;93.22;100556.16;5012338;28;20197;-82
2023/10/11 09:12:58;;;;;;;10.17;5.57;;;;;;;18.78;92.94;100558.31;5018661;28;20273;-86
2023/10/11 09:15:44;;;;;;;8.37;5.20;;;;;;;18.86;92.44;100552.78;5022696;28;20542;-84
2023/10/11 09:18:16;;;;;;;9.23;5.30;;;;;;;18.93;91.94;100546.34;5018240;28;20244;-82
2023/10/11 09:20:55;;;;;;;9.23;5.00;;;;;;;19.10;91.90;100544.84;5015333;28;20821;-80
2023/10/11 09:23:37;;;;;;;9.33;5.63;;;;;;;19.14;91.83;100538.56;5021193;28;20182;-81
2023/10/11 09:26:05;;;;;;;8.77;5.10;;;;;;;19.25;90.98;100546.00;5020542;28;20254;-83
2023/10/11 09:28:33;;;;;;;6.40;4.87;;;;;;;19.32;90.78;100547.44;5021322;28;20206;-83
2023/10/11 09:31:11;;;;;;;8.40;5.10;;;;;;;19.34;91.41;100550.88;5013590;28;20744;-82
2023/10/11 09:33:40;;;;;;;7.03;4.60;;;;;;;19.45;91.14;100546.03;5017611;28;20187;-79
2023/10/11 09:36:07;;;;;;;10.50;5.30;;;;;;;19.69;88.94;100545.03;5013420;28;20218;-78
2023/10/11 09:38:39;;;;;;;8.87;4.63;;;;;;;19.76;90.01;100544.72;5015194;28;20187;-81
2023/10/11 09:41:11;;;;;;;7.17;4.90;;;;;;;19.80;90.45;100542.84;5022028;28;20215;-79
2023/10/11 09:43:44;;;;;;;9.40;5.00;;;;;;;19.84;90.86;100549.63;5016407;28;20210;-79
2023/10/11 09:46:11;;;;;;;7.97;4.93;;;;;;;19.98;90.36;100559.59;5016678;28;20207;-82
2023/10/11 09:48:38;;;;;;;7.43;4.63;;;;;;;20.07;90.51;100561.78;5016241;28;20192;-78
2023/10/11 09:51:14;;;;;;;7.57;5.00;;;;;;;20.10;90.47;100550.31;5047345;28;20780;-81
2023/10/11 09:53:50;;;;;;;10.17;4.70;;;;;;;20.20;89.75;100556.84;5014713;28;20615;-80
2023/10/11 09:56:40;;;;;;;9.87;5.20;;;;;;;20.26;89.28;100563.59;5018259;28;20207;-82
2023/10/11 09:59:22;;;;;;;12.17;5.23;;;;;;;20.32;89.23;100567.72;5016376;28;20271;-77
2023/10/11 10:02:02;;;;;;;7.90;4.80;;;;;;;20.37;88.41;100563.13;5018209;28;20215;-80
2023/10/11 10:04:49;;;;;;;8.53;4.70;;;;;;;20.54;87.40;100557.06;5028158;28;20300;-81
2023/10/11 10:10:06;;;;;;;6.67;4.43;;;;;;;20.80;87.31;100560.28;5023720;28;20275;-81
2023/10/11 10:12:32;;;;;;;9.57;4.97;;;;;;;20.76;88.22;100558.75;5012619;28;20204;-80
2023/10/11 10:15:30;;;;;;;10.47;5.03;;;;;;;20.98;86.14;100545.41;5014385;28;20218;-82
2023/10/11 10:18:03;;;;;;;10.83;5.07;;;;;;;21.03;85.20;100551.28;5021436;28;20196;-80
2023/10/11 10:20:49;;;;;;;8.03;4.10;;;;;;;21.18;85.53;100549.69;5022870;28;20199;-81
2023/10/11 10:23:14;;;;;;;11.83;4.93;;;;;;;21.11;86.80;100558.81;5016696;28;20195;-83
2023/10/11 10:26:13;;;;;;;7.93;4.53;;;;;;;21.32;85.72;100556.91;5017063;28;20557;-81
2023/10/11 10:28:39;;;;;;;7.83;4.60;;;;;;;21.45;86.41;100552.75;5020730;28;20202;-81
2023/10/11 10:31:16;;;;;;;8.60;4.50;;;;;;;21.56;86.54;100549.53;5022857;28;20211;-80
2023/10/11 10:33:44;;;;;;;8.33;4.13;;;;;;;21.54;86.89;100548.78;5019307;28;20191;-82
2023/10/11 10:36:21;;;;;;;8.63;4.20;;;;;;;21.65;86.92;100542.16;5020851;28;20215;-82
2023/10/11 10:39:01;;;;;;;6.27;4.00;;;;;;;21.77;86.71;100539.75;5024315;28;20206;-81
2023/10/11 10:41:36;;;;;;;9.73;5.10;;;;;;;21.76;83.01;100542.44;5040081;28;20445;-80
2023/10/11 10:44:09;;;;;;;8.47;4.53;;;;;;;21.95;83.00;100536.22;5033330;28;20227;-80
2023/10/11 10:46:53;;;;;;;7.90;4.73;;;;;;;22.05;82.80;100533.00;5017536;28;20211;-81
2023/10/11 10:49:44;;;;;;;9.53;4.73;;;;;;;22.08;83.25;100537.25;5016502;28;20263;-81
2023/10/11 10:52:27;;;;;;;10.80;4.60;;;;;;;22.21;83.34;100525.13;5019116;28;20637;-81
2023/10/11 10:55:05;;;;;;;8.90;4.30;;;;;;;22.34;82.29;100517.41;5025656;28;20207;-82
2023/10/11 10:57:41;;;;;;;8.33;4.90;;;;;;;22.35;81.28;100520.88;5025964;28;20176;-81
2023/10/11 11:00:21;;;;;;;6.33;4.50;;;;;;;22.32;81.40;100510.50;5014751;28;20183;-78
2023/10/11 11:02:46;;;;;;;9.80;4.57;;;;;;;22.33;81.78;100509.56;5016912;28;20211;-80
2023/10/11 11:05:15;;;;;;;7.40;4.23;;;;;;;22.45;81.28;100495.75;5021080;28;20200;-80
2023/10/11 11:07:50;;;;;;;7.30;4.03;;;;;;;22.57;80.80;100496.00;5018985;28;20388;-80
2023/10/11 11:10:20;;;;;;;7.47;4.27;;;;;;;22.59;80.88;100488.84;5018870;28;20182;-81
2023/10/11 11:12:48;;;;;;;9.40;4.70;;;;;;;22.64;80.76;100485.03;5021390;28;20277;-80
2023/10/11 11:15:20;;;;;;;7.13;4.30;;;;;;;22.72;80.50;100476.66;5025684;28;20196;-78
2023/10/11 11:17:51;;;;;;;9.90;4.57;;;;;;;22.60;81.46;100477.38;5016900;28;20271;-80
2023/10/11 11:22:52;;;;;;;7.67;3.63;;;;;;;22.88;80.13;100474.00;5017085;28;20220;-80
2023/10/11 11:28:01;;;;;;;11.63;4.30;;;;;;;23.06;79.17;100471.22;5029431;28;20195;-84
2023/10/11 11:30:33;;;;;;;10.07;4.87;;;;;;;22.93;77.36;100466.66;5016334;28;20184;-83
2023/10/11 11:33:13;;;;;;;9.53;4.33;;;;;;;23.08;76.63;100469.34;5022090;28;20195;-81
2023/10/11 11:35:44;;;;;;;10.53;4.80;;;;;;;23.19;76.71;100463.44;5018582;28;20203;-81
2023/10/11 11:38:19;;;;;;;7.73;4.07;;;;;;;23.25;76.32;100457.81;5020579;28;20206;-83
2023/10/11 11:40:48;;;;;;;6.40;3.90;;;;;;;23.34;77.19;100456.41;5016325;28;20187;-81
2023/10/11 11:43:17;;;;;;;6.57;4.80;;;;;;;23.40;77.87;100448.13;5020737;28;20253;-82
2023/10/11 11:45:44;;;;;;;6.73;4.13;;;;;;;23.50;77.80;100451.06;5020705;28;20215;-81
2023/10/11 11:48:09;;;;;;;4.70;3.33;;;;;;;23.43;78.23;100440.03;5021593;28;20278;-80
2023/10/11 11:50:34;;;;;;;7.27;4.43;;;;;;;23.46;77.72;100441.63;5016709;28;20278;-82
2023/10/11 11:53:01;;;;;;;8.33;4.13;;;;;;;23.48;77.32;100442.38;5018243;28;20203;-81
2023/10/11 11:55:27;;;;;;;8.90;5.00;;;;;;;23.31;76.75;100436.34;5019414;28;20218;-80
2023/10/11 11:57:56;;;;;;;9.67;4.33;;;;;;;23.43;77.89;100434.75;5018965;28;20186;-81
2023/10/11 12:02:55;;;;;;;8.57;4.50;;;;;;;23.57;77.37;100432.13;5017436;28;20199;-81
2023/10/11 12:05:21;;;;;;;9.07;4.43;;;;;;;23.52;77.72;100430.72;5013351;28;20239;-81
2023/10/11 12:07:49;;;;;;;8.03;4.10;;;;;;;23.68;76.83;100426.16;5018868;28;20180;-82
2023/10/11 12:10:24;;;;;;;7.00;4.03;;;;;;;23.72;76.67;100418.91;5017239;28;20180;-83
2023/10/11 12:12:53;;;;;;;11.33;4.60;;;;;;;23.71;77.21;100418.03;5022800;28;20256;-82
2023/10/11 12:15:19;;;;;;;8.57;4.60;;;;;;;23.81;77.59;100423.59;5025274;28;20195;-82
2023/10/11 12:17:53;;;;;;;6.83;4.63;;;;;;;23.84;77.95;100414.63;5021923;28;20261;-82
2023/10/11 12:20:19;;;;;;;8.57;4.50;;;;;;;23.83;77.96;100423.50;5021190;28;20183;-82
2023/10/11 12:22:45;;;;;;;6.43;3.87;;;;;;;23.81;78.35;100415.66;5021925;28;20699;-82
2023/10/11 12:25:13;;;;;;;5.33;4.07;;;;;;;23.78;78.06;100409.75;5015646;28;20262;-84
2023/10/11 12:27:42;;;;;;;9.83;4.03;;;;;;;23.77;78.40;100413.31;5021188;28;20184;-82
2023/10/11 12:30:20;;;;;;;8.57;4.30;;;;;;;23.76;77.89;100412.47;5015187;28;20234;-81
2023/10/11 12:32:46;;;;;;;11.37;4.80;;;;;;;23.58;77.83;100404.75;5022539;28;20199;-82
2023/10/11 12:35:12;;;;;;;7.20;4.20;;;;;;;23.71;77.81;100407.47;5021510;28;20196;-82